CheckWX is a tool to help pilots better visualize weather data.  It is not intended as a substitute for an official pre-flight weather briefing.

03:26:44 UTC

2D5 METAR
Oakes Municipal Airport
Oakes, North Dakota, USA
Current

12 mins ago

K2D5 240315Z AUTO 16004KT 9SM OVC060 01/01 A3007 RMK AO2 PWINO
Observed
Mar-24 @ 03:15 UTC
Wind
  • 160° at 4 KTS
Visibility
9 SM
Flight Rules
VFR
Cloud Levels
  • Overcast at 6,000' AGL
Temperature
C / 34°F
Dewpoint
C / 34°F
Humidity
100%
Altimeter
30.07" Hg
Pressure
1018.32 hPa
Previous

32 mins ago

K2D5 240255Z AUTO 00000KT 8SM OVC055 01/01 A3007 RMK AO2 PWINO
Observed
Mar-24 @ 02:55 UTC
Visibility
8 SM
Flight Rules
VFR
Cloud Levels
  • Overcast at 5,500' AGL
Temperature
C / 34°F
Dewpoint
C / 34°F
Humidity
100%
Altimeter
30.07" Hg
Pressure
1018.32 hPa
Previous

52 mins ago

K2D5 240235Z AUTO 00000KT 8SM SCT050 BKN055 OVC120 00/00 A3007 RMK AO2 PWINO
Observed
Mar-24 @ 02:35 UTC
Visibility
8 SM
Flight Rules
VFR
Cloud Levels
  • Scattered at 5,000' AGL
  • Broken at 5,500' AGL
  • Overcast at 12,000' AGL
Temperature
C / 32°F
Dewpoint
C / 32°F
Humidity
100%
Altimeter
30.07" Hg
Pressure
1018.32 hPa